Tiempo atmosférico en la estación meteorológica de Briviesca, Burgos (730 m.)



Fecha
DESCASC
Temp. máxima en grados centígrados (hora)
DESCASC
Temp. mínima en grados centígrados (hora)
DESCASC
Temp. media en grados centígrados
DESCASC
Racha de viento máxima en m/sg (hora)
DESCASC
Velocidad máxima media en intervalos de 10 minutos(hora)
DESCASC
Precipitaciones diarias en mm
DESCASC
Precipitaciones de 00:00 a 06:00 en mm
DESCASC
Precipitaciones de 06:00 a 12:00 en mm
DESCASC
Precipitaciones de 12:00 a 18:00 en mm
DESCASC
Precipitaciones de 18:00 a 24:00 en mm
DESCASC
18-08-2019 30.9 (16:00) 12.2 (06:40) 21.5 13.33 (17:30) 7.22 (17:40) 0 0 0 0 0
17-08-2019 33.9 (17:00) 11.8 (07:40) 22.9 10.28 (17:10) 6.39 (17:40) 0 0 0 0 0
16-08-2019 31.3 (17:30) 10.5 (06:10) 20.9 9.72 (19:50) 6.39 (20:50) 0 0 0 0 0
15-08-2019 25.3 (17:50) 14.4 (00:00) 19.8 9.17 (18:30) 6.39 (18:30) 0 0 0 0 0
14-08-2019 30.2 (16:20) 7.9 (00:00) 19.1 9.17 (19:10) 6.39 (18:50) 0 0 0 0 0
13-08-2019 23.3 (18:20) 7.4 (00:00) 15.3 8.89 (17:30) 5.28 (19:30) 0 0 0 0 0
12-08-2019 20.7 (17:10) 8.5 (00:00) 14.6 9.72 (18:00) 5.83 (17:50) 0 0 0 0 0
11-08-2019 22.2 (15:40) 13.6 (00:00) 17.9 8.06 (18:10) 5.56 (18:20) 3.2 1 1.2 1 0
10-08-2019 27.4 (17:30) 12.6 (00:00) 20 10 (18:20) 6.67 (18:20) 0 0 0 0 0
09-08-2019 28.4 (17:00) 17 (00:00) 22.7 15.28 (16:30) 9.44 (16:40) 0.4 0 0 0 0.4
08-08-2019 31 (18:20) 16.6 (00:00) 23.8 14.44 (13:30) 8.33 (13:30) 0 0 0 0 0
07-08-2019 27.7 (15:20) 16.5 (00:00) 22.1 12.22 (18:30) 7.5 (18:30) 0.6 0 0 0 0.6
06-08-2019 30.8 (18:30) 13 (00:00) 21.9 10 (14:50) 6.11 (19:10) 0 0 0 0 0
05-08-2019 29.3 (15:50) 13 (00:00) 21.1 9.44 (18:20) 6.39 (19:00) 0 0 0 0 0
04-08-2019 30 (16:50) 15.2 (00:00) 22.6 9.17 (20:20) 6.67 (19:50) 0 0 0 0 0
03-08-2019 30.3 (18:20) 12 (00:00) 21.1 10.28 (19:30) 6.67 (19:30) 0 0 0 0 0
02-08-2019 27.9 (17:40) 14.6 (00:00) 21.3 7.78 (19:40) 5 (20:10) 0 0 0 0 0
01-08-2019 22.6 (18:30) 13.7 (00:00) 18.2 6.94 (12:30) 4.72 (19:00) 14.8 14.6 0.2 0 0
31-07-2019 23.3 (18:00) 8.9 (00:00) 16.1 8.61 (18:10) 5.56 (21:00) 0 0 0 0 0
30-07-2019 22.3 (17:10) 11.7 (00:00) 17 9.17 (17:10) 6.39 (19:20) 0 0 0 0 0
29-07-2019 28.3 (17:20) 9.3 (00:00) 18.8 12.78 (15:30) 7.78 (19:20) 0 0 0 0 0
28-07-2019 24.7 (19:40) 12.1 (00:00) 18.4 6.39 (21:20) 4.72 (22:20) 0 0 0 0 0
27-07-2019 16.3 (16:50) 12.5 (00:00) 14.4 6.39 (21:30) 3.61 (21:40) 5 0 2.8 1.8 0.4
26-07-2019 19.6 (00:00) 14.9 (00:00) 17.3 10 (06:50) 5 (06:50) 8.8 2.2 6 0.6 0
25-07-2019 35.2 (17:20) 15.5 (00:00) 25.4 11.11 (16:00) 6.67 (16:10) 0 0 0 0 0
24-07-2019 34.4 (17:00) 14.8 (00:00) 24.6 12.78 (19:30) 5.83 (15:00) 1.4 0 0 0 1.4
23-07-2019 35.6 (16:50) 16.7 (00:00) 26.1 18.61 (18:40) 8.33 (20:40) 1 0 0 0.8 0.2
22-07-2019 34.3 (18:30) 17.5 (00:00) 25.9 11.39 (18:40) 8.06 (20:10) 0 0 0 0 0

Gráficas

Temp. máximas Temp. mínimas Temp. medias Precipitaciones Rachas de viento máximas Velocidades máximas media en intervalos de 10 minutos

Datos horarios

Fecha y hora oficial Temperatura (ºC) Velocidad del viento (km/h) Dirección del viento Racha (km/h) Dirección de racha Precipitación (mm) Presión (hPa) Tendencia (hPa) Humedad (%)
2019-08-20 23:00:00 14.4 12 Nordeste 23 Nordeste 0 -- -- 78
2019-08-20 22:00:00 14.8 15 Nordeste 25 Este 0 -- -- 79
2019-08-20 21:00:00 15.9 18 Nordeste 32 Nordeste 0 -- -- 73
2019-08-20 20:00:00 18.3 19 Nordeste 31 Nordeste 0 -- -- 64
2019-08-20 19:00:00 19.4 20 Nordeste 31 Este 0 -- -- 56
2019-08-20 18:00:00 20.4 13 Nordeste 32 Nordeste 0 -- -- 54
2019-08-20 17:00:00 19.8 17 Este 31 Este 0 -- -- 55
2019-08-20 16:00:00 19.4 18 Nordeste 30 Nordeste 0 -- -- 59
2019-08-20 15:00:00 18.9 17 Nordeste 27 Este 0 -- -- 63
2019-08-20 14:00:00 17.4 14 Nordeste 29 Este 0 -- -- 65
2019-08-20 13:00:00 17.9 18 Nordeste 30 Nordeste 0 -- -- 60
2019-08-20 12:00:00 15.3 15 Nordeste 25 Este 0 -- -- 77
2019-08-20 11:00:00 14.8 15 Este 26 Este 0 -- -- 77
2019-08-20 10:00:00 14.4 14 Este 23 Este 0 -- -- 82
2019-08-20 09:00:00 13.9 8 Nordeste 17 Norte 0 -- -- 82
2019-08-20 08:00:00 13.6 9 Nordeste 17 Nordeste 0 -- -- 85
2019-08-20 07:00:00 13.9 10 Nordeste 15 Norte 0 -- -- 85
2019-08-20 06:00:00 13.7 13 Norte 21 Norte 0 -- -- 87
2019-08-20 05:00:00 13.6 12 Nordeste 17 Nordeste 0 -- -- 88
2019-08-20 04:00:00 13.7 6 Nordeste 16 Este 0 -- -- 90
2019-08-20 03:00:00 13.7 10 Nordeste 22 Nordeste 0 -- -- 91
2019-08-20 02:00:00 14.2 13 Este 24 Este 0 -- -- 88
2019-08-20 01:00:00 14.5 16 Nordeste 28 Nordeste 0 -- -- 84
2019-08-20 00:00:00 14.6 10 Nordeste 19 Nordeste 0 -- -- 83
2019-08-19 23:00:00 14.7 13 Nordeste 20 Nordeste 0 -- -- 82
2019-08-19 22:00:00 15.1 14 Nordeste 26 Nordeste 0 -- -- 79
2019-08-19 21:00:00 15.6 21 Nordeste 33 Este 0 -- -- 76
2019-08-19 20:00:00 16.5 17 Nordeste 28 Este 0 -- -- 72
2019-08-19 19:00:00 17.2 18 Nordeste 27 Nordeste 0 -- -- 70
2019-08-19 18:00:00 17.6 18 Nordeste 28 Este 0 -- -- 70
2019-08-19 17:00:00 18.2 17 Nordeste 29 Este 0 -- -- 68
2019-08-19 16:00:00 18.4 17 Nordeste 30 Nordeste 0 -- -- 66
2019-08-19 15:00:00 17.8 17 Nordeste 25 Este 0 -- -- 68
2019-08-19 14:00:00 16.9 17 Nordeste 27 Nordeste 0 -- -- 74
2019-08-19 13:00:00 16 16 Nordeste 25 Este 0 -- -- 77
2019-08-19 12:00:00 15.9 15 Nordeste 29 Este 0 -- -- 78
2019-08-19 11:00:00 15.4 17 Este 27 Este 0 -- -- 79
2019-08-19 10:00:00 14.8 14 Nordeste 26 Este 0 -- -- 81
2019-08-19 09:00:00 13.9 15 Este 22 Este 0 -- -- 86
2019-08-19 08:00:00 13.5 12 Este 19 Este 0 -- -- 88
2019-08-19 07:00:00 13.7 13 Este 23 Este 0 -- -- 85
2019-08-19 06:00:00 13.9 10 Nordeste 15 Nordeste 0 -- -- 83
2019-08-19 05:00:00 13.9 8 Nordeste 14 Nordeste 0 -- -- 84
2019-08-19 04:00:00 14 8 Nordeste 14 Este 0 -- -- 84
2019-08-19 03:00:00 13.9 12 Nordeste 18 Nordeste 0 -- -- 85
2019-08-19 02:00:00 14.2 12 Nordeste 19 Nordeste 0 -- -- 87
2019-08-19 01:00:00 14.7 13 Nordeste 21 Nordeste 0 -- -- 85
2019-08-19 00:00:00 15.4 12 Nordeste 21 Nordeste 0 -- -- 86
2019-08-18 23:00:00 16.1 14 Nordeste 22 Nordeste 0 -- -- 84
2019-08-18 22:00:00 16.9 13 Nordeste 19 Nordeste 0 -- -- 82
2019-08-18 21:00:00 18.1 7 Noroeste 17 Nordeste 0 -- -- 75
2019-08-18 20:00:00 19.2 14 Nordeste 24 Norte 0 -- -- 72
2019-08-18 19:00:00 21.4 13 Norte 31 Nordeste 0 -- -- 67
2019-08-18 18:00:00 25.9 15 Norte 48 Nordeste 0 -- -- 53
2019-08-18 17:00:00 30.3 16 Sudoeste 36 Sudoeste 0 -- -- 23
2019-08-18 16:00:00 30.9 21 Sudoeste 36 Sudoeste 0 -- -- 25
2019-08-18 15:00:00 29.8 20 Sudoeste 37 Sudoeste 0 -- -- 28
2019-08-18 14:00:00 29.3 17 Sudoeste 30 Oeste 0 -- -- 29
2019-08-18 13:00:00 26.6 15 Sudoeste 33 Sudoeste 0 -- -- 37
2019-08-18 12:00:00 26.2 15 Sudoeste 26 Sudoeste 0 -- -- 40
2019-08-18 11:00:00 23.9 6 Norte 12 Norte 0 -- -- 46
2019-08-18 10:00:00 21 6 Norte 11 Norte 0 -- -- 51
2019-08-18 09:00:00 18.6 5 Este 8 Este 0 -- -- 60
2019-08-18 08:00:00 14 0 Calma 10 Oeste 0 -- -- 76
2019-08-18 07:00:00 12.2 0 Calma -- -- 0 -- -- 75
2019-08-18 06:00:00 13.3 0 Calma 8 Sur 0 -- -- 68
2019-08-18 05:00:00 14.2 4 Sudoeste 9 Sudoeste 0 -- -- 63
2019-08-18 04:00:00 13.6 0 Calma 6 Oeste 0 -- -- 62
2019-08-18 03:00:00 14.4 3 Sudoeste 8 Oeste 0 -- -- 60
2019-08-18 02:00:00 16.8 5 Sudoeste 14 Sudoeste 0 -- -- 49
2019-08-18 01:00:00 18.6 8 Sur 18 Sur 0 -- -- 44
2019-08-18 00:00:00 20.1 10 Sudoeste 27 Sudeste 0 -- -- 41
2019-08-17 23:00:00 23.3 21 Sudeste 28 Sudeste 0 -- -- 51
2019-08-17 22:00:00 22.4 0 Calma 3 Sur 0 -- -- 40
2019-08-17 21:00:00 28.8 0 Calma 24 Oeste 0 -- -- 31
2019-08-17 20:00:00 32.4 17 Sudoeste 30 Sudoeste 0 -- -- 19
2019-08-17 19:00:00 33.4 18 Sudoeste 31 Sudoeste 0 -- -- 21
2019-08-17 18:00:00 33.8 18 Sudoeste 37 Sudoeste 0 -- -- 19
2019-08-17 17:00:00 33.9 21 Sudoeste 35 Sudoeste 0 -- -- 18
2019-08-17 16:00:00 33 18 Sudoeste 33 Sudoeste 0 -- -- 20
2019-08-17 15:00:00 32 20 Sudoeste 35 Sudoeste 0 -- -- 23
2019-08-17 14:00:00 30.6 21 Sudoeste 31 Sudoeste 0 -- -- 28
2019-08-17 13:00:00 29.1 18 Sudoeste 31 Sudoeste 0 -- -- 31
2019-08-17 12:00:00 26 5 Norte 13 Nordeste 0 -- -- 43
2019-08-17 11:00:00 22.2 2 Sudoeste 12 Nordeste 0 -- -- 52
2019-08-17 10:00:00 18.5 4 Norte 8 Noroeste 0 -- -- 61
2019-08-17 09:00:00 15.3 3 Sudoeste 12 Sudeste 0 -- -- 69
2019-08-17 08:00:00 12.5 6 Sudeste 13 Nordeste 0 -- -- 78
2019-08-17 07:00:00 12.3 5 Sudoeste 12 Sur 0 -- -- 78
2019-08-17 06:00:00 12.9 2 Sur 9 Oeste 0 -- -- 76
2019-08-17 05:00:00 13.2 4 Sudoeste 9 Oeste 0 -- -- 75
2019-08-17 04:00:00 14.6 6 Sudeste 10 Sur 0 -- -- 68
2019-08-17 03:00:00 16.2 9 Sur 21 Sur 0 -- -- 64
2019-08-17 02:00:00 17.6 15 Sudeste 23 Este 0 -- -- 59
2019-08-17 01:00:00 18 16 Este 21 Sudeste 0 -- -- 60
2019-08-17 00:00:00 19.4 9 Sudeste 17 Sudeste 0 -- -- 54
2019-08-16 23:00:00 20.6 6 Sudeste 17 Sudeste 0 -- -- 53
2019-08-16 22:00:00 22.4 12 Este 29 Este 0 -- -- 53
2019-08-16 21:00:00 24.9 21 Este 30 Este 0 -- -- 49
2019-08-16 20:00:00 28.5 19 Nordeste 35 Este 0 -- -- 42
2019-08-16 19:00:00 30.7 11 Sudeste 23 Este 0 -- -- 34
2019-08-16 18:00:00 31.2 13 Este 25 Este 0 -- -- 33
2019-08-16 17:00:00 30.9 9 Sudeste 26 Este 0 -- -- 35
2019-08-16 16:00:00 30.2 13 Este 26 Sudeste 0 -- -- 38
2019-08-16 15:00:00 29.4 18 Este 27 Este 0 -- -- 39
2019-08-16 14:00:00 28.7 17 Este 27 Este 0 -- -- 43
2019-08-16 13:00:00 26.3 5 Norte 12 Nordeste 0 -- -- 43
2019-08-16 12:00:00 23 3 Nordeste 9 Nordeste 0 -- -- 51
2019-08-16 11:00:00 19.6 4 Norte 8 Norte 0 -- -- 67
2019-08-16 10:00:00 16.3 2 Noroeste 6 Norte 0 -- -- 81
2019-08-16 09:00:00 14 3 Sudoeste 10 Sur 0 -- -- 87
2019-08-16 08:00:00 11 4 Sur 8 Sur 0 -- -- 96
2019-08-16 07:00:00 10.7 2 Sur 13 Sur 0 -- -- 96
2019-08-16 06:00:00 10.6 0 Calma 4 Sudoeste 0 -- -- 95
2019-08-16 05:00:00 11.4 3 Sur 10 Sudeste 0 -- -- 95
2019-08-16 04:00:00 11.8 5 Sudoeste 11 Sudoeste 0 -- -- 94
2019-08-16 03:00:00 12.2 0 Calma 6 Sudeste 0 -- -- 93
2019-08-16 02:00:00 12.6 2 Sur 8 Sudoeste 0 -- -- 91
2019-08-16 01:00:00 13.4 4 Sudoeste 11 Sudoeste 0 -- -- 87
2019-08-16 00:00:00 14.4 3 Sudoeste 18 Este 0 -- -- 84
2019-08-15 23:00:00 15.8 7 Este 23 Sudeste 0 -- -- 80
2019-08-15 22:00:00 17.1 12 Sudeste 22 Este 0 -- -- 76
2019-08-15 21:00:00 19.5 16 Este 28 Este 0 -- -- 68
2019-08-15 20:00:00 21.9 19 Este 30 Este 0 -- -- 60
2019-08-15 19:00:00 23.9 17 Este 33 Este 0 -- -- 54
2019-08-15 18:00:00 25 13 Este 27 Este 0 -- -- 50
2019-08-15 17:00:00 25.2 11 Este 24 Este 0 -- -- 48
2019-08-15 16:00:00 25 12 Nordeste 24 Nordeste 0 -- -- 49
2019-08-15 15:00:00 24 10 Nordeste 25 Nordeste 0 -- -- 52
2019-08-15 14:00:00 22.9 12 Nordeste 20 Nordeste 0 -- -- 57
2019-08-15 13:00:00 21.3 6 Este 18 Este 0 -- -- 66
2019-08-15 12:00:00 19.4 10 Nordeste 23 Este 0 -- -- 74
2019-08-15 11:00:00 18.9 13 Nordeste 22 Nordeste 0 -- -- 77
2019-08-15 10:00:00 17.5 4 Norte 9 Norte 0 -- -- 85
2019-08-15 09:00:00 16.4 0 Calma 0 Calma 0 -- -- 90
2019-08-15 08:00:00 15.9 0 Calma 0 Calma 0 -- -- 91
2019-08-15 07:00:00 15.5 0 Calma 3 Noroeste 0 -- -- 92
2019-08-15 06:00:00 15.5 0 Calma 5 Nordeste 0 -- -- 91
2019-08-15 05:00:00 16.2 4 Sudeste 11 Sudeste 0 -- -- 90
2019-08-15 04:00:00 14.9 4 Sur 14 Sudeste 0 -- -- 92
2019-08-15 03:00:00 15.5 11 Sudeste 19 Este 0 -- -- 92
2019-08-15 02:00:00 15.6 11 Sudeste 18 Sudeste 0 -- -- 91
2019-08-15 01:00:00 15.9 7 Sudeste 17 Sudeste 0 -- -- 87
2019-08-15 00:00:00 16.6 11 Este 18 Este 0 -- -- 80
2019-08-14 23:00:00 17.8 13 Sudeste 24 Este 0 -- -- 68
2019-08-14 22:00:00 19.5 17 Este 24 Este 0 -- -- 61
2019-08-14 21:00:00 22.2 17 Este 26 Nordeste 0 -- -- 55
2019-08-14 20:00:00 25 16 Nordeste 33 Este 0 -- -- 50
2019-08-14 19:00:00 27 21 Este 31 Este 0 -- -- 42
2019-08-14 18:00:00 29.7 14 Nordeste 30 Norte 0 -- -- 32
2019-08-14 17:00:00 30 11 Norte 23 Noroeste 0 -- -- 30
2019-08-14 16:00:00 29.4 9 Oeste 30 Norte 0 -- -- 30
2019-08-14 15:00:00 28.5 14 Oeste 27 Noroeste 0 -- -- 28
2019-08-14 14:00:00 27.3 12 Oeste 24 Oeste 0 -- -- 31
2019-08-14 13:00:00 25.6 12 Oeste 22 Sudoeste 0 -- -- 32
2019-08-14 12:00:00 22.7 4 Nordeste 10 Oeste 0 -- -- 45
2019-08-14 11:00:00 19.1 4 Norte 9 Noroeste 0 -- -- 59
2019-08-14 10:00:00 15.4 3 Noroeste 6 Noroeste 0 -- -- 72
2019-08-14 09:00:00 12.4 2 Sudoeste 7 Sudoeste 0 -- -- 85
2019-08-14 08:00:00 8.6 0 Calma 4 Sur 0 -- -- 96
2019-08-14 07:00:00 8.6 2 Sudoeste 8 Sudoeste 0 -- -- 94
2019-08-14 06:00:00 9.1 4 Sudoeste 13 Sudoeste 0 -- -- 93
2019-08-14 05:00:00 9.2 5 Sur 10 Sudoeste 0 -- -- 91
2019-08-14 04:00:00 10.5 3 Sudoeste 8 Sur 0 -- -- 88
2019-08-14 03:00:00 11.1 8 Sudoeste 11 Sur 0 -- -- 87
2019-08-14 02:00:00 12 4 Sudoeste 13 Sur 0 -- -- 84
2019-08-14 01:00:00 12.8 2 Sur 12 Este 0 -- -- 80
2019-08-14 00:00:00 13.7 5 Sudeste 21 Sudeste 0 -- -- 78
2019-08-13 23:00:00 14.5 11 Sudeste 20 Sudeste 0 -- -- 74
2019-08-13 22:00:00 15.9 14 Sudeste 22 Este 0 -- -- 68
2019-08-13 21:00:00 18.7 13 Este 26 Este 0 -- -- 58
2019-08-13 20:00:00 20.9 19 Este 28 Este 0 -- -- 51
2019-08-13 19:00:00 22.4 17 Este 26 Este 0 -- -- 44
2019-08-13 18:00:00 23 9 Este 32 Este 0 -- -- 39
2019-08-13 17:00:00 22.7 9 Nordeste 24 Nordeste 0 -- -- 39
2019-08-13 16:00:00 22.1 7 Nordeste 20 Nordeste 0 -- -- 41
2019-08-13 15:00:00 21.3 7 Nordeste 18 Este 0 -- -- 43
2019-08-13 14:00:00 19.8 8 Este 30 Este 0 -- -- 52
2019-08-13 13:00:00 18.4 9 Nordeste 25 Este 0 -- -- 50
2019-08-13 12:00:00 17.1 8 Sudeste 21 Este 0 -- -- 60
2019-08-13 11:00:00 15.3 10 Este 16 Este 0 -- -- 69
2019-08-13 10:00:00 13.8 4 Nordeste 10 Nordeste 0 -- -- 76
2019-08-13 09:00:00 11.4 2 Nordeste 4 Nordeste 0 -- -- 89
2019-08-13 08:00:00 7.5 0 Calma 2 Sudeste 0 -- -- 96
2019-08-13 07:00:00 8.8 0 Calma 6 Noroeste 0 -- -- 92
2019-08-13 06:00:00 10.4 3 Norte 11 Este 0 -- -- 92
2019-08-13 05:00:00 10.7 10 Sudeste 18 Sudeste 0 -- -- 90
2019-08-13 04:00:00 10.4 6 Sudeste 12 Sudeste 0 -- -- 92
2019-08-13 03:00:00 10.3 10 Sudeste 14 Sudeste 0 -- -- 92
2019-08-13 02:00:00 9.4 0 Calma 8 Este 0 -- -- 89
2019-08-13 01:00:00 10.8 7 Este 12 Este 0 -- -- 86
2019-08-13 00:00:00 11.8 8 Este 22 Este 0 -- -- 86
2019-08-12 23:00:00 12.8 12 Este 19 Este 0 -- -- 80
2019-08-12 22:00:00 13.5 9 Este 18 Nordeste 0 -- -- 75
2019-08-12 21:00:00 15 13 Nordeste 26 Norte 0 -- -- 63
2019-08-12 20:00:00 16.9 18 Nordeste 32 Norte 0 -- -- 58
2019-08-12 19:00:00 18.7 18 Norte 31 Norte 0 -- -- 52
2019-08-12 18:00:00 20 18 Norte 35 Norte 0 -- -- 47
2019-08-12 17:00:00 20.3 15 Norte 28 Norte 0 -- -- 43
2019-08-12 16:00:00 19.5 15 Norte 31 Nordeste 0 -- -- 44
2019-08-12 15:00:00 20.2 10 Norte 23 Norte 0 -- -- 39
2019-08-12 14:00:00 19.4 9 Nordeste 20 Nordeste 0 -- -- 47
2019-08-12 13:00:00 17.9 7 Norte 17 Nordeste 0 -- -- 55
2019-08-12 12:00:00 17.4 7 Nordeste 14 Este 0 -- -- 59
2019-08-12 11:00:00 15.7 6 Este 13 Este 0 -- -- 65
2019-08-12 10:00:00 14.8 0 Calma 5 Sudeste 0 -- -- 69
2019-08-12 09:00:00 12.6 2 Sur 7 Sur 0 -- -- 78
2019-08-12 08:00:00 9.4 0 Calma 0 Calma 0 -- -- 92
2019-08-12 07:00:00 8.7 0 Calma -- -- 0 -- -- 92
2019-08-12 06:00:00 9.1 0 Calma -- -- 0 -- -- 96
2019-08-12 05:00:00 8.7 0 Calma 3 Oeste 0 -- -- 93
2019-08-12 04:00:00 9.8 0 Calma 3 Sudeste 0 -- -- 90
2019-08-12 03:00:00 11.9 2 Este 6 Nordeste 0 -- -- 82
2019-08-12 02:00:00 13.4 3 Nordeste 10 Nordeste 0 -- -- 77
2019-08-12 01:00:00 13.9 8 Nordeste 15 Nordeste 0 -- -- 74
2019-08-12 00:00:00 14 9 Nordeste 16 Nordeste 0 -- -- 74
2019-08-11 23:00:00 14.5 8 Nordeste 18 Nordeste 0 -- -- 74
2019-08-11 22:00:00 14.7 12 Norte 21 Nordeste 0 -- -- 75
2019-08-11 21:00:00 15.6 10 Nordeste 25 Norte 0 -- -- 78
2019-08-11 20:00:00 17.3 13 Nordeste 27 Norte 0 -- -- 73
2019-08-11 19:00:00 18.9 16 Norte 29 Norte 0 -- -- 69
2019-08-11 18:00:00 19.7 15 Norte 26 Norte 0.2 -- -- 68
2019-08-11 17:00:00 20 13 Nordeste 25 Nordeste 0.6 -- -- 72
2019-08-11 16:00:00 21.4 4 Este 18 Nordeste 0 -- -- 57
2019-08-11 15:00:00 20.5 6 Norte 22 Nordeste 0 -- -- 57
2019-08-11 14:00:00 20.4 12 Nordeste 18 Nordeste 0 -- -- 60
2019-08-11 13:00:00 19.6 9 Norte 17 Norte 0.2 -- -- 66
2019-08-11 12:00:00 18.2 9 Norte 17 Noroeste 0 -- -- 77
2019-08-11 11:00:00 17.9 7 Nordeste 15 Nordeste 0 -- -- 76
2019-08-11 10:00:00 16.6 5 Nordeste 10 Nordeste 0 -- -- 84
2019-08-11 09:00:00 15 2 Nordeste 8 Nordeste 0 -- -- 91
2019-08-11 08:00:00 13.8 0 Calma 6 Sudeste 0 -- -- 95
2019-08-11 07:00:00 13.6 3 Sur 8 Noroeste 1.2 -- -- 95
2019-08-11 06:00:00 13.6 5 Noroeste 14 Noroeste 0.8 -- -- 95
2019-08-11 05:00:00 14.2 5 Noroeste 21 Noroeste 0 -- -- 90
2019-08-11 04:00:00 15.2 3 Noroeste 9 Norte 0.2 -- -- 87
2019-08-11 03:00:00 15.5 6 Nordeste 17 Este 0 -- -- 83
2019-08-11 02:00:00 15.7 8 Nordeste 16 Nordeste 0 -- -- 82
2019-08-11 01:00:00 16 11 Nordeste 17 Nordeste 0 -- -- 79
2019-08-11 00:00:00 16.2 10 Este 15 Este 0 -- -- 80
2019-08-10 23:00:00 16 10 Nordeste 20 Nordeste 0 -- -- 77
2019-08-10 22:00:00 16.8 14 Nordeste 23 Nordeste 0 -- -- 74
2019-08-10 21:00:00 19.1 13 Nordeste 23 Nordeste 0 -- -- 65
2019-08-10 20:00:00 21.1 18 Nordeste 32 Nordeste 0 -- -- 60
2019-08-10 19:00:00 23.1 22 Nordeste 36 Nordeste 0 -- -- 54
2019-08-10 18:00:00 25.4 21 Este 34 Este 0 -- -- 48
2019-08-10 17:00:00 26.9 7 Oeste 24 Sudoeste 0 -- -- 33
2019-08-10 16:00:00 26.8 13 Sudoeste 27 Sudoeste 0 -- -- 32
2019-08-10 15:00:00 25.5 12 Sudoeste 26 Sudoeste 0 -- -- 38
2019-08-10 14:00:00 23.8 4 Sur 15 Oeste 0 -- -- 40
2019-08-10 13:00:00 21.7 10 Norte 16 Noroeste 0 -- -- 52
2019-08-10 12:00:00 21.2 6 Este 12 Sudeste 0 -- -- 63
2019-08-10 11:00:00 19 4 Sudoeste 10 Oeste 0 -- -- 71
2019-08-10 10:00:00 16.4 5 Norte 8 Norte 0 -- -- 87
2019-08-10 09:00:00 14.5 3 Norte 4 Norte 0 -- -- 94
2019-08-10 08:00:00 13.3 0 Calma 5 Este 0 -- -- 97
2019-08-10 07:00:00 13 2 Sudeste 9 Este 0 -- -- 95
2019-08-10 06:00:00 13.3 4 Este 8 Este 0 -- -- 95
2019-08-10 05:00:00 12.7 5 Este 9 Este 0 -- -- 95
2019-08-10 04:00:00 13.3 6 Este 11 Nordeste 0 -- -- 93
2019-08-10 03:00:00 14.4 3 Este 22 Sudoeste 0 -- -- 87
2019-08-10 02:00:00 16 16 Sudoeste 28 Sudoeste 0 -- -- 81
2019-08-10 01:00:00 16.4 10 Oeste 34 Sudoeste 0 -- -- 77
2019-08-10 00:00:00 17 26 Sudoeste 35 Sudoeste 0 -- -- 74
2019-08-09 23:00:00 17.1 18 Sudoeste 30 Sudoeste 0 -- -- 72
2019-08-09 22:00:00 17.6 19 Sudoeste 35 Sudoeste 0 -- -- 76
2019-08-09 21:00:00 18.8 22 Sudoeste 38 Sudoeste 0.2 -- -- 66
2019-08-09 20:00:00 22.5 23 Sudoeste 44 Oeste 0.2 -- -- 55
2019-08-09 19:00:00 26.4 23 Oeste 45 Sudoeste 0 -- -- 32
2019-08-09 18:00:00 27.8 28 Sudoeste 52 Sudoeste 0 -- -- 38
2019-08-09 17:00:00 28.4 27 Sudoeste 55 Sudoeste 0 -- -- 47
2019-08-09 16:00:00 26.9 27 Sudoeste 45 Oeste 0 -- -- 53
2019-08-09 15:00:00 25.8 21 Sudoeste 43 Sudoeste 0 -- -- 62
2019-08-09 14:00:00 23 24 Oeste 39 Oeste 0 -- -- 73
2019-08-09 13:00:00 22.7 24 Oeste 38 Oeste 0 -- -- 73
2019-08-09 12:00:00 23.2 21 Oeste 44 Sudoeste 0 -- -- 72
2019-08-09 11:00:00 23.6 31 Sudoeste 48 Sudoeste 0 -- -- 66
2019-08-09 10:00:00 23.2 22 Sudoeste 47 Sudoeste 0 -- -- 68
2019-08-09 09:00:00 22.4 21 Sudoeste 34 Sudoeste 0 -- -- 69
2019-08-09 08:00:00 19.1 6 Sur 15 Sudoeste 0 -- -- 78
2019-08-09 07:00:00 17.6 8 Sudoeste 13 Sudoeste 0 -- -- 83
2019-08-09 06:00:00 17.6 4 Sudoeste 11 Sudoeste 0 -- -- 79
2019-08-09 05:00:00 18.2 8 Sudoeste 12 Sudoeste 0 -- -- 77
2019-08-09 04:00:00 18.4 5 Sudoeste 10 Sudoeste 0 -- -- 75
2019-08-09 03:00:00 20 6 Sudoeste 16 Sudoeste 0 -- -- 70
2019-08-09 02:00:00 22.1 12 Sudoeste 20 Sudoeste 0 -- -- 62
2019-08-09 01:00:00 22.1 12 Sudoeste 19 Sudoeste 0 -- -- 61
2019-08-09 00:00:00 23.5 12 Sudoeste 19 Sudoeste 0 -- -- 57
2019-08-08 23:00:00 25.5 12 Sudoeste 24 Sudoeste 0 -- -- 51
2019-08-08 22:00:00 26.9 10 Oeste 26 Sudoeste 0 -- -- 47
2019-08-08 21:00:00 29 18 Oeste 42 Sudoeste 0 -- -- 42
2019-08-08 20:00:00 30.6 24 Sudoeste 41 Oeste 0 -- -- 39
2019-08-08 19:00:00 30.2 21 Sudoeste 40 Sudoeste 0 -- -- 43
2019-08-08 18:00:00 30.9 22 Sudoeste 39 Sudoeste 0 -- -- 42
2019-08-08 17:00:00 30.5 21 Oeste 37 Sudoeste 0 -- -- 45
2019-08-08 16:00:00 27.8 19 Sudoeste 40 Sudoeste 0 -- -- 53
2019-08-08 15:00:00 27 20 Sudoeste 42 Sudoeste 0 -- -- 59
2019-08-08 14:00:00 26.8 28 Sudoeste 52 Sudoeste 0 -- -- 60
2019-08-08 13:00:00 25.5 28 Sudoeste 46 Sudoeste 0 -- -- 60
2019-08-08 12:00:00 24.7 24 Sudoeste 41 Sudoeste 0 -- -- 61
2019-08-08 11:00:00 23.6 25 Sudoeste 40 Sudoeste 0 -- -- 62
2019-08-08 10:00:00 21.9 22 Sudoeste 34 Sudoeste 0 -- -- 66
2019-08-08 09:00:00 20 14 Sudoeste 21 Sudoeste 0 -- -- 75
2019-08-08 08:00:00 18.1 7 Sudoeste 16 Sudoeste 0 -- -- 82
2019-08-08 07:00:00 17.4 5 Sudoeste 12 Sudoeste 0 -- -- 85
2019-08-08 06:00:00 18.1 9 Sudoeste 16 Sudoeste 0 -- -- 81
2019-08-08 05:00:00 17.7 10 Sudoeste 19 Sudoeste 0 -- -- 83
2019-08-08 04:00:00 16.6 6 Sudoeste 15 Sudoeste 0 -- -- 88
2019-08-08 03:00:00 17 13 Sudoeste 21 Sudoeste 0 -- -- 88
2019-08-08 02:00:00 17 9 Sudoeste 15 Sudoeste 0 -- -- 89
2019-08-08 01:00:00 17.5 11 Sudoeste 18 Sudoeste 0 -- -- 87
2019-08-08 00:00:00 18.3 13 Sudoeste 20 Oeste 0.2 -- -- 84
2019-08-07 23:00:00 19.1 11 Sudoeste 21 Sudoeste 0.4 -- -- 80
2019-08-07 22:00:00 22 8 Oeste 22 Oeste 0 -- -- 61
2019-08-07 21:00:00 23.4 10 Oeste 27 Oeste 0 -- -- 51
2019-08-07 20:00:00 23.4 11 Oeste 43 Sudoeste 0 -- -- 49
2019-08-07 19:00:00 25.1 19 Oeste 44 Sudoeste 0 -- -- 44
2019-08-07 18:00:00 26.2 24 Oeste 39 Oeste 0 -- -- 41
2019-08-07 17:00:00 26.4 21 Sudoeste 33 Oeste 0 -- -- 41
2019-08-07 16:00:00 27.3 20 Sudoeste 34 Sudoeste 0 -- -- 40
2019-08-07 15:00:00 27 12 Oeste 22 Sudoeste 0 -- -- 42
2019-08-07 14:00:00 26.2 6 Nordeste 18 Sudoeste 0 -- -- 49
2019-08-07 13:00:00 25 5 Norte 13 Noroeste 0 -- -- 53
2019-08-07 12:00:00 23 5 Norte 13 Nordeste 0 -- -- 61
2019-08-07 11:00:00 21.3 3 Sudoeste 6 Noroeste 0 -- -- 70
2019-08-07 10:00:00 20.4 0 Calma 5 Sur 0 -- -- 72
2019-08-07 09:00:00 18.4 3 Sur 6 Sudoeste 0 -- -- 84
2019-08-07 08:00:00 16.7 0 Calma 5 Noroeste 0 -- -- 90
2019-08-07 07:00:00 16.6 0 Calma -- -- 0 -- -- 89
2019-08-07 06:00:00 16.6 0 Calma -- -- 0 -- -- 89
2019-08-07 05:00:00 16.6 0 Calma 6 Norte 0 -- -- 90
2019-08-07 04:00:00 16.9 0 Calma 10 Sudoeste 0 -- -- 88
2019-08-07 03:00:00 17.1 4 Sur 19 Sudeste 0 -- -- 86
2019-08-07 02:00:00 17.3 12 Sudeste 18 Sudeste 0 -- -- 85
2019-08-07 01:00:00 18.3 7 Sudeste 13 Oeste 0 -- -- 80
2019-08-07 00:00:00 18.4 6 Nordeste 18 Este 0 -- -- 79
2019-08-06 23:00:00 18.8 16 Nordeste 24 Nordeste 0 -- -- 78
2019-08-06 22:00:00 20.5 4 Norte 16 Norte 0 -- -- 74
2019-08-06 21:00:00 22.7 6 Norte 24 Nordeste 0 -- -- 66
2019-08-06 20:00:00 25.1 17 Nordeste 31 Este 0 -- -- 58
2019-08-06 19:00:00 28.9 17 Nordeste 28 Este 0 -- -- 46
2019-08-06 18:00:00 30.2 13 Oeste 26 Sudoeste 0 -- -- 35
2019-08-06 17:00:00 30.2 15 Sudoeste 26 Oeste 0 -- -- 36
2019-08-06 16:00:00 30.7 14 Oeste 31 Oeste 0 -- -- 33
2019-08-06 15:00:00 30.4 19 Sudoeste 36 Oeste 0 -- -- 35
2019-08-06 14:00:00 29.4 16 Oeste 30 Oeste 0 -- -- 40
2019-08-06 13:00:00 25.3 3 Noroeste 12 Norte 0 -- -- 59
2019-08-06 12:00:00 22.8 4 Norte 14 Noroeste 0 -- -- 61
2019-08-06 11:00:00 20.5 0 Calma 7 Norte 0 -- -- 70
2019-08-06 10:00:00 18.4 5 Noroeste 10 Norte 0 -- -- 78
2019-08-06 09:00:00 16.5 0 Calma 7 Sur 0 -- -- 86
2019-08-06 08:00:00 14 2 Sur 11 Norte 0 -- -- 96
2019-08-06 07:00:00 13.3 5 Sur 13 Sur 0 -- -- 97
2019-08-06 06:00:00 13.5 3 Sudoeste 10 Sudoeste 0 -- -- 96
2019-08-06 05:00:00 13.8 0 Calma 6 Oeste 0 -- -- 94
2019-08-06 04:00:00 14.9 6 Sudoeste 17 Sudeste 0 -- -- 93
2019-08-06 03:00:00 15.4 8 Sur 14 Sudeste 0 -- -- 92
2019-08-06 02:00:00 16.3 11 Sudeste 19 Este 0 -- -- 89
2019-08-06 01:00:00 17 7 Sudeste 18 Este 0 -- -- 86
2019-08-06 00:00:00 17.9 13 Este 19 Este 0 -- -- 83
2019-08-05 23:00:00 18.7 13 Sudeste 20 Sudeste 0 -- -- 81
2019-08-05 22:00:00 20.4 13 Este 23 Este 0 -- -- 75
2019-08-05 21:00:00 23 17 Este 27 Nordeste 0 -- -- 67
2019-08-05 20:00:00 25.8 17 Nordeste 30 Nordeste 0 -- -- 58
2019-08-05 19:00:00 27.1 23 Nordeste 34 Este 0 -- -- 55
2019-08-05 18:00:00 28.8 20 Este 31 Este 0 -- -- 51
2019-08-05 17:00:00 29.1 18 Este 26 Este 0 -- -- 51
2019-08-05 16:00:00 29.2 10 Este 18 Este 0 -- -- 48
2019-08-05 15:00:00 28.4 7 Este 18 Nordeste 0 -- -- 50
2019-08-05 14:00:00 27.2 6 Norte 17 Este 0 -- -- 46
2019-08-05 13:00:00 25.4 6 Nordeste 16 Nordeste 0 -- -- 55
2019-08-05 12:00:00 23.2 5 Nordeste 12 Este 0 -- -- 60
2019-08-05 11:00:00 20.7 4 Noroeste 10 Norte 0 -- -- 72
2019-08-05 10:00:00 19 2 Norte 6 Nordeste 0 -- -- 77
2019-08-05 09:00:00 16.8 0 Calma -- -- 0 -- -- 87
2019-08-05 08:00:00 13.7 0 Calma -- -- 0 -- -- 96
2019-08-05 07:00:00 13.6 0 Calma 17 Sudeste 0 -- -- 93
2019-08-05 06:00:00 14.7 12 Sudeste 16 Sudeste 0 -- -- 93
2019-08-05 05:00:00 14.4 2 Sudeste 11 Sudeste 0 -- -- 94
2019-08-05 04:00:00 15.5 11 Sudeste 16 Sudeste 0 -- -- 91
2019-08-05 03:00:00 16.5 10 Sudeste 15 Sudeste 0 -- -- 88
2019-08-05 02:00:00 17.6 6 Sudeste 10 Sudeste 0 -- -- 85
2019-08-05 01:00:00 17.8 5 Sudeste 14 Este 0 -- -- 86
2019-08-05 00:00:00 17.7 9 Este 18 Este 0 -- -- 87
2019-08-04 23:00:00 17.1 14 Este 24 Este 0 -- -- 91
2019-08-04 22:00:00 18.2 15 Este 23 Este 0 -- -- 87
2019-08-04 21:00:00 20.8 17 Nordeste 33 Este 0 -- -- 77
2019-08-04 20:00:00 24.3 23 Este 32 Este 0 -- -- 65
2019-08-04 19:00:00 26.5 21 Este 32 Este 0 -- -- 60
2019-08-04 18:00:00 27.6 21 Este 33 Este 0 -- -- 55
2019-08-04 17:00:00 29.9 13 Nordeste 21 Este 0 -- -- 50
2019-08-04 16:00:00 29 10 Nordeste 18 Nordeste 0 -- -- 48
2019-08-04 15:00:00 27 6 Norte 14 Nordeste 0 -- -- 54
2019-08-04 14:00:00 24.8 5 Noroeste 14 Nordeste 0 -- -- 66
2019-08-04 13:00:00 22.3 7 Norte 13 Norte 0 -- -- 71
2019-08-04 12:00:00 19.9 3 Nordeste 11 Nordeste 0 -- -- 80
2019-08-04 11:00:00 18.3 3 Nordeste 12 Este 0 -- -- 86
2019-08-04 10:00:00 17.7 7 Este 16 Este 0 -- -- 91
2019-08-04 09:00:00 17.2 6 Nordeste 10 Nordeste 0 -- -- 93
2019-08-04 08:00:00 16.8 5 Nordeste 9 Este 0 -- -- 94
2019-08-04 07:00:00 16.4 5 Este 8 Este 0 -- -- 96
2019-08-04 06:00:00 15.4 0 Calma 8 Sudeste 0 -- -- 96
2019-08-04 05:00:00 15.5 8 Sudeste 12 Este 0 -- -- 94
2019-08-04 04:00:00 16 8 Este 16 Este 0 -- -- 94
2019-08-04 03:00:00 16.5 10 Este 15 Este 0 -- -- 93
2019-08-04 02:00:00 17 4 Este 17 Este 0 -- -- 90
2019-08-04 01:00:00 17.9 11 Este 19 Este 0 -- -- 88
2019-08-04 00:00:00 18.7 9 Este 19 Este 0 -- -- 85
2019-08-03 23:00:00 20.5 14 Este 18 Este 0 -- -- 75
2019-08-03 22:00:00 22.6 11 Este 26 Este 0 -- -- 67
2019-08-03 21:00:00 25.4 17 Este 31 Este 0 -- -- 60
2019-08-03 20:00:00 28.1 22 Este 37 Este 0 -- -- 51
2019-08-03 19:00:00 30 15 Este 26 Este 0 -- -- 39
2019-08-03 18:00:00 30 14 Este 23 Este 0 -- -- 44
2019-08-03 17:00:00 29.9 9 Nordeste 23 Este 0 -- -- 41
2019-08-03 16:00:00 29 12 Este 22 Este 0 -- -- 45
2019-08-03 15:00:00 28 11 Nordeste 21 Este 0 -- -- 45
2019-08-03 14:00:00 26.5 10 Este 19 Nordeste 0 -- -- 54
2019-08-03 13:00:00 25.3 12 Este 22 Este 0 -- -- 54
2019-08-03 12:00:00 23.8 10 Este 20 Este 0 -- -- 57
2019-08-03 11:00:00 21.7 10 Este 14 Este 0 -- -- 69
2019-08-03 10:00:00 18.2 2 Norte 6 Norte 0 -- -- 83
2019-08-03 09:00:00 15.6 0 Calma 5 Sudoeste 0 -- -- 89
2019-08-03 08:00:00 13.1 0 Calma 5 Sudeste 0 -- -- 97
2019-08-03 07:00:00 12 0 Calma 5 Sudeste 0 -- -- 97
2019-08-03 06:00:00 12.6 2 Sudoeste 8 Sudoeste 0 -- -- 95
2019-08-03 05:00:00 13.1 0 Calma 5 Sur 0 -- -- 96
2019-08-03 04:00:00 13.5 0 Calma 7 Sudoeste 0 -- -- 94
2019-08-03 03:00:00 14.5 3 Sudoeste 10 Sudeste 0 -- -- 93
2019-08-03 02:00:00 14.5 2 Sudoeste 5 Sur 0 -- -- 92
2019-08-03 01:00:00 15.7 3 Sudoeste 6 Sur 0 -- -- 89
2019-08-03 00:00:00 16.9 4 Sudoeste 15 Este 0 -- -- 85
2019-08-02 23:00:00 18.3 9 Sudeste 22 Este 0 -- -- 79
2019-08-02 22:00:00 20.3 16 Este 22 Sudeste 0 -- -- 72
2019-08-02 21:00:00 23.6 15 Este 24 Este 0 -- -- 58
2019-08-02 20:00:00 25.7 17 Este 28 Este 0 -- -- 54
2019-08-02 19:00:00 26.8 13 Este 24 Este 0 -- -- 52
2019-08-02 18:00:00 27.8 8 Nordeste 20 Este 0 -- -- 48
2019-08-02 17:00:00 27.4 6 Nordeste 22 Este 0 -- -- 50
2019-08-02 16:00:00 27.3 5 Nordeste 16 Nordeste 0 -- -- 51
2019-08-02 15:00:00 25.5 6 Este 18 Nordeste 0 -- -- 57
2019-08-02 14:00:00 24 8 Nordeste 18 Este 0 -- -- 59
2019-08-02 13:00:00 22.3 6 Este 25 Este 0 -- -- 65
2019-08-02 12:00:00 20.7 8 Nordeste 18 Este 0 -- -- 69
2019-08-02 11:00:00 19.1 8 Nordeste 15 Nordeste 0 -- -- 77
2019-08-02 10:00:00 16.9 6 Nordeste 16 Nordeste 0 -- -- 83
2019-08-02 09:00:00 15.9 9 Este 17 Este 0 -- -- 86
2019-08-02 08:00:00 15.4 3 Este 10 Este 0 -- -- 91
2019-08-02 07:00:00 15.3 5 Este 12 Este 0 -- -- 93
2019-08-02 06:00:00 15.2 5 Este 12 Este 0 -- -- 95
2019-08-02 05:00:00 15.1 4 Este 7 Este 0 -- -- 96
2019-08-02 04:00:00 15.1 0 Calma 8 Este 0 -- -- 96
2019-08-02 03:00:00 14.6 5 Sudeste 11 Nordeste 0 -- -- 95
2019-08-02 02:00:00 15.7 8 Nordeste 14 Nordeste 0 -- -- 92
2019-08-02 01:00:00 15.9 8 Nordeste 15 Nordeste 0 -- -- 92
2019-08-02 00:00:00 16.1 10 Este 16 Nordeste 0 -- -- 92
2019-08-01 23:00:00 16.4 11 Este 17 Este 0 -- -- 91
2019-08-01 22:00:00 16.9 13 Este 17 Este 0 -- -- 91
2019-08-01 21:00:00 18.5 11 Nordeste 17 Nordeste 0 -- -- 86
2019-08-01 20:00:00 19.6 12 Nordeste 21 Norte 0 -- -- 84
2019-08-01 19:00:00 21.1 17 Norte 22 Norte 0 -- -- 77
2019-08-01 18:00:00 21.6 11 Norte 18 Noroeste 0 -- -- 76
2019-08-01 17:00:00 21.1 8 Norte 17 Norte 0 -- -- 79
2019-08-01 16:00:00 21.1 8 Norte 17 Nordeste 0 -- -- 78
2019-08-01 15:00:00 20.7 9 Nordeste 17 Nordeste 0 -- -- 81
2019-08-01 14:00:00 19.7 12 Nordeste 23 Este 0 -- -- 84
2019-08-01 13:00:00 18.4 12 Este 25 Este 0 -- -- 90
2019-08-01 12:00:00 17.4 13 Este 19 Este 0 -- -- 91
2019-08-01 11:00:00 16.8 8 Nordeste 17 Nordeste 0 -- -- 93
2019-08-01 10:00:00 16 8 Norte 14 Nordeste 0 -- -- 96
2019-08-01 09:00:00 15.2 3 Norte 11 Nordeste 0 -- -- 98
2019-08-01 08:00:00 14.4 5 Nordeste 8 Nordeste 0.2 -- -- 98
2019-08-01 07:00:00 14.1 0 Calma 15 Sudeste 0 -- -- 98
2019-08-01 06:00:00 13.7 6 Sudoeste 18 Sudoeste 12 -- -- 98
2019-08-01 05:00:00 13.9 8 Este 16 Este 2.6 -- -- 96
2019-08-01 04:00:00 14.5 7 Noroeste 14 Oeste 0 -- -- 90
2019-08-01 03:00:00 14 7 Este 17 Este 0 -- -- 90
2019-08-01 02:00:00 14.4 9 Este 19 Nordeste 0 -- -- 87
2019-08-01 01:00:00 14.7 14 Este 20 Este 0 -- -- 88
2019-08-01 00:00:00 15 7 Este 23 Este 0 -- -- 84
2019-07-31 23:00:00 15.9 15 Este 20 Este 0 -- -- 80
2019-07-31 22:00:00 17.1 12 Este 29 Este 0 -- -- 74
2019-07-31 21:00:00 19.4 20 Este 30 Nordeste 0 -- -- 64
2019-07-31 20:00:00 20.8 19 Nordeste 28 Nordeste 0 -- -- 60
2019-07-31 19:00:00 22.3 15 Nordeste 31 Este 0 -- -- 55
2019-07-31 18:00:00 23.3 17 Este 28 Nordeste 0 -- -- 47
2019-07-31 17:00:00 22.6 15 Este 27 Nordeste 0 -- -- 50
2019-07-31 16:00:00 21.8 15 Este 28 Este 0 -- -- 48
2019-07-31 15:00:00 21.8 15 Nordeste 29 Este 0 -- -- 50
2019-07-31 14:00:00 20.4 11 Este 28 Este 0 -- -- 50
2019-07-31 13:00:00 18.9 13 Este 30 Este 0 -- -- 54
2019-07-31 12:00:00 17.6 14 Este 26 Este 0 -- -- 58
2019-07-31 11:00:00 15.9 14 Nordeste 23 Este 0 -- -- 70
2019-07-31 10:00:00 14.9 13 Este 22 Este 0 -- -- 77
2019-07-31 09:00:00 12.5 6 Este 13 Este 0 -- -- 89
2019-07-31 08:00:00 9.3 8 Sudeste 13 Sudeste 0 -- -- 97
2019-07-31 07:00:00 9.4 8 Sudeste 14 Sudeste 0 -- -- 94
2019-07-31 06:00:00 9.8 9 Sudeste 14 Sudeste 0 -- -- 96
2019-07-31 05:00:00 10.1 9 Este 17 Sudeste 0 -- -- 95
2019-07-31 04:00:00 10.2 11 Sudeste 19 Sudeste 0 -- -- 93
2019-07-31 03:00:00 10.3 10 Sudeste 17 Sudeste 0 -- -- 91
2019-07-31 02:00:00 10.6 11 Sudeste 20 Sudeste 0 -- -- 91
2019-07-31 01:00:00 11 12 Sudeste 21 Este 0 -- -- 89
2019-07-31 00:00:00 11.7 12 Este 17 Sudeste 0 -- -- 87
2019-07-30 23:00:00 12.8 11 Este 25 Este 0 -- -- 85
2019-07-30 22:00:00 14.1 16 Este 27 Este 0 -- -- 78
2019-07-30 21:00:00 16.5 19 Este 29 Este 0 -- -- 66
2019-07-30 20:00:00 18.6 17 Nordeste 33 Nordeste 0 -- -- 56
2019-07-30 19:00:00 20.6 17 Nordeste 27 Nordeste 0 -- -- 49
2019-07-30 18:00:00 21.9 15 Nordeste 33 Nordeste 0 -- -- 44
2019-07-30 17:00:00 22.1 9 Nordeste 24 Nordeste 0 -- -- 40
2019-07-30 16:00:00 21.3 11 Este 25 Este 0 -- -- 46
2019-07-30 15:00:00 21.2 10 Nordeste 21 Nordeste 0 -- -- 45
2019-07-30 14:00:00 20.1 8 Noroeste 24 Norte 0 -- -- 48
2019-07-30 13:00:00 18.8 8 Norte 19 Nordeste 0 -- -- 48
2019-07-30 12:00:00 18.2 7 Nordeste 22 Este 0 -- -- 55
2019-07-30 11:00:00 16.5 7 Norte 12 Norte 0 -- -- 61
2019-07-30 10:00:00 15.1 7 Nordeste 17 Nordeste 0 -- -- 68
2019-07-30 09:00:00 13.8 8 Nordeste 14 Este 0 -- -- 80
2019-07-30 08:00:00 12.8 8 Este 12 Este 0 -- -- 90
2019-07-30 07:00:00 13.1 6 Este 14 Este 0 -- -- 90
2019-07-30 06:00:00 13.6 9 Este 14 Este 0 -- -- 89
2019-07-30 05:00:00 13.6 13 Este 17 Este 0 -- -- 90
2019-07-30 04:00:00 13.7 10 Este 18 Este 0 -- -- 91
2019-07-30 03:00:00 14.5 7 Este 15 Este 0 -- -- 88
2019-07-30 02:00:00 14.6 9 Este 16 Este 0 -- -- 88
2019-07-30 01:00:00 15.4 7 Este 12 Nordeste 0 -- -- 84
2019-07-30 00:00:00 15.6 8 Este 17 Este 0 -- -- 83
2019-07-29 23:00:00 15.9 8 Nordeste 15 Este 0 -- -- 81
2019-07-29 22:00:00 15.8 7 Este 15 Este 0 -- -- 81
2019-07-29 21:00:00 18 11 Nordeste 24 Nordeste 0 -- -- 71
2019-07-29 20:00:00 20.5 18 Nordeste 41 Nordeste 0 -- -- 63
2019-07-29 19:00:00 27.9 14 Oeste 37 Oeste 0 -- -- 24
2019-07-29 18:00:00 28 17 Sudoeste 37 Sudoeste 0 -- -- 31
2019-07-29 17:00:00 26.7 17 Oeste 33 Sudoeste 0 -- -- 39
2019-07-29 16:00:00 27.4 22 Sudoeste 46 Sudoeste 0 -- -- 36
2019-07-29 15:00:00 27.2 25 Sudoeste 40 Sudoeste 0 -- -- 39
2019-07-29 14:00:00 26.4 27 Sudoeste 42 Sudoeste 0 -- -- 35
2019-07-29 13:00:00 25 23 Sudoeste 39 Sudoeste 0 -- -- 33
2019-07-29 12:00:00 23.6 26 Sudoeste 37 Sudoeste 0 -- -- 31
2019-07-29 11:00:00 21 3 Norte 13 Norte 0 -- -- 54
2019-07-29 10:00:00 17.6 0 Calma 8 Nordeste 0 -- -- 72
2019-07-29 09:00:00 15.1 0 Calma 5 Oeste 0 -- -- 78
2019-07-29 08:00:00 10.8 4 Sudoeste 8 Sudoeste 0 -- -- 89
2019-07-29 07:00:00 9.4 3 Sudoeste 8 Sudoeste 0 -- -- 92
2019-07-29 06:00:00 9.8 2 Sur 8 Sudoeste 0 -- -- 91
2019-07-29 05:00:00 10.1 4 Sur 7 Sur 0 -- -- 90
2019-07-29 04:00:00 10.9 0 Calma 9 Sudeste 0 -- -- 89
2019-07-29 03:00:00 11.5 0 Calma 12 Sudoeste 0 -- -- 88
2019-07-29 02:00:00 13.2 9 Sur 13 Sudeste 0 -- -- 82
2019-07-29 01:00:00 13.7 2 Sudeste 18 Sudoeste 0 -- -- 84
2019-07-29 00:00:00 15.6 10 Sudoeste 22 Sudeste 0 -- -- 77
2019-07-28 23:00:00 17.1 14 Sudeste 23 Sudeste 0 -- -- 71
2019-07-28 22:00:00 18.4 17 Sudeste 23 Este 0 -- -- 65
2019-07-28 21:00:00 24 6 Oeste 14 Oeste 0 -- -- 37
2019-07-28 20:00:00 24.7 3 Sudoeste 11 Sudoeste 0 -- -- 39
2019-07-28 19:00:00 23.9 5 Este 11 Este 0 -- -- 47
2019-07-28 18:00:00 23.3 6 Nordeste 19 Este 0 -- -- 44
2019-07-28 17:00:00 22.9 6 Nordeste 16 Sur 0 -- -- 47
2019-07-28 16:00:00 22.1 5 Oeste 17 Norte 0 -- -- 47
2019-07-28 15:00:00 20.9 8 Sudoeste 17 Sur 0 -- -- 54
2019-07-28 14:00:00 20.2 5 Norte 13 Nordeste 0 -- -- 55
2019-07-28 13:00:00 18.5 2 Sudeste 9 Este 0 -- -- 67
2019-07-28 12:00:00 16.7 5 Norte 14 Este 0 -- -- 70
2019-07-28 11:00:00 15.4 0 Calma 7 Sudoeste 0 -- -- 80
2019-07-28 10:00:00 13.6 2 Sudeste 5 Noroeste 0 -- -- 91
2019-07-28 09:00:00 12.4 3 Noroeste 9 Noroeste 0 -- -- 99
2019-07-28 08:00:00 13.2 0 Calma 8 Noroeste 0 -- -- 95
2019-07-28 07:00:00 12.6 0 Calma 2 Sur 0 -- -- 98
2019-07-28 06:00:00 12.5 2 Oeste 4 Sudoeste 0 -- -- 97
2019-07-28 05:00:00 12.3 0 Calma 7 Sudoeste 0 -- -- 97
2019-07-28 04:00:00 12.1 2 Sudoeste 5 Sudoeste 0 -- -- 97
2019-07-28 03:00:00 12.4 0 Calma 4 Noroeste 0 -- -- 97
2019-07-28 02:00:00 12.6 0 Calma 8 Sudoeste 0 -- -- 96
2019-07-28 01:00:00 12.4 2 Sudoeste 10 Norte 0 -- -- 93
2019-07-28 00:00:00 12.9 7 Nordeste 14 Norte 0.2 -- -- 92
2019-07-27 23:00:00 13.3 3 Noroeste 8 Noroeste 0 -- -- 96
2019-07-26 12:00:00 -- -- -- -- -- -- -- -- --
2019-07-26 11:00:00 -- -- -- -- -- -- -- -- --
2019-07-26 10:00:00 -- -- -- -- -- -- -- -- --
2019-07-26 09:00:00 17.7 4 Nordeste 8 Sudeste 0 -- -- 96
2019-07-26 08:00:00 17.3 2 Sur 24 Este 0 -- -- 97
2019-07-26 07:00:00 17 18 Sudeste 36 Nordeste 5.8 -- -- 98
2019-07-26 06:00:00 17 4 Este 22 Este 0.4 -- -- 96
2019-07-26 05:00:00 17.5 8 Nordeste 22 Este 1.8 -- -- 94
2019-07-26 04:00:00 18.5 12 Este 19 Sudeste 0 -- -- 87
2019-07-26 03:00:00 18.8 9 Nordeste 15 Nordeste 0 -- -- 88
2019-07-26 02:00:00 19.3 7 Nordeste 13 Norte 0 -- -- 87
2019-07-26 01:00:00 19.5 10 Nordeste 20 Nordeste 0 -- -- 86
2019-07-26 00:00:00 19.6 10 Nordeste 22 Nordeste 0 -- -- 87
2019-07-25 23:00:00 19.8 9 Este 15 Este 0 -- -- 84
2019-07-25 22:00:00 21.9 6 Noroeste 22 Norte 0 -- -- 77
2019-07-25 21:00:00 24.6 20 Nordeste 31 Nordeste 0 -- -- 66
2019-07-25 20:00:00 30.1 9 Este 24 Este 0 -- -- 41
2019-07-25 19:00:00 33.9 10 Sudoeste 32 Sudoeste 0 -- -- 24
2019-07-25 18:00:00 35.1 10 Sudoeste 32 Sudoeste 0 -- -- 25
2019-07-25 17:00:00 35 20 Sudoeste 37 Sudoeste 0 -- -- 25
2019-07-25 16:00:00 34.6 21 Sudoeste 40 Sudoeste 0 -- -- 26
2019-07-25 15:00:00 34.1 11 Sudoeste 36 Sudoeste 0 -- -- 29
2019-07-25 14:00:00 33 17 Sudoeste 33 Sudoeste 0 -- -- 30
2019-07-25 13:00:00 31.4 18 Sudoeste 30 Sudoeste 0 -- -- 34
2019-07-25 12:00:00 29.1 0 Calma 9 Norte 0 -- -- 45
2019-07-25 11:00:00 26.9 4 Noroeste 12 Nordeste 0 -- -- 49
2019-07-25 10:00:00 24.5 5 Nordeste 9 Este 0 -- -- 65
2019-07-25 09:00:00 20.2 5 Sudoeste 10 Sudoeste 0 -- -- 75
2019-07-25 08:00:00 16.6 0 Calma 7 Sudoeste 0 -- -- 84
2019-07-25 07:00:00 15.5 3 Oeste 11 Oeste 0 -- -- 86
2019-07-25 06:00:00 16 0 Calma 9 Sudeste 0 -- -- 84
2019-07-25 05:00:00 16.5 5 Sudoeste 12 Norte 0 -- -- 81
2019-07-25 04:00:00 18.6 6 Sudoeste 19 Sudoeste 0 -- -- 71
2019-07-25 03:00:00 18.2 8 Sudoeste 14 Sudoeste 0 -- -- 76
2019-07-25 02:00:00 19 0 Calma 17 Sudeste 0 -- -- 77
2019-07-25 01:00:00 19.6 7 Sur 13 Sudeste 0 -- -- 72
2019-07-25 00:00:00 19.9 3 Nordeste 19 Sur 0 -- -- 82
2019-07-24 23:00:00 22 10 Sur 18 Sur 0.2 -- -- 78
2019-07-24 22:00:00 23.8 10 Sur 22 Sudeste 0 -- -- 72
2019-07-24 21:00:00 24.9 6 Oeste 19 Sudoeste 0 -- -- 67
2019-07-24 20:00:00 23.8 6 Sudeste 46 Sudoeste 0.4 -- -- 71
2019-07-24 19:00:00 26 9 Sudoeste 27 Este 0.8 -- -- 63
2019-07-24 18:00:00 32.5 11 Este 21 Este 0 -- -- 29
2019-07-24 17:00:00 34.4 13 Sur 27 Sudoeste 0 -- -- 27
2019-07-24 16:00:00 34.3 10 Sur 27 Sur 0 -- -- 31
2019-07-24 15:00:00 32.2 21 Sudeste 36 Sudeste 0 -- -- 32
2019-07-24 14:00:00 31.7 13 Este 26 Este 0 -- -- 38
2019-07-24 13:00:00 30.3 9 Sudeste 17 Este 0 -- -- 40
2019-07-24 12:00:00 28.4 8 Este 18 Sudeste 0 -- -- 46
2019-07-24 11:00:00 26.6 8 Este 18 Este 0 -- -- 54
2019-07-24 10:00:00 23.5 3 Noroeste 6 Norte 0 -- -- 63
2019-07-24 09:00:00 21 0 Calma 12 Sudoeste 0 -- -- 66
2019-07-24 08:00:00 16.8 5 Sudoeste 11 Sudoeste 0 -- -- 83
2019-07-24 07:00:00 14.9 0 Calma 9 Sudoeste 0 -- -- 90
2019-07-24 06:00:00 15 0 Calma 8 Este 0 -- -- 87
2019-07-24 05:00:00 16.6 0 Calma 12 Sudoeste 0 -- -- 81
2019-07-24 04:00:00 19.2 7 Sur 26 Sudeste 0 -- -- 69
2019-07-24 03:00:00 19.9 11 Sur 21 Sur 0 -- -- 69
2019-07-24 02:00:00 20.3 4 Sur 17 Sur 0 -- -- 67
2019-07-24 01:00:00 21 8 Sur 27 Sudeste 0 -- -- 70
2019-07-24 00:00:00 22 21 Sudeste 31 Sudeste 0 -- -- 62
2019-07-23 23:00:00 22.2 11 Este 14 Este 0 -- -- 59
2019-07-23 22:00:00 23.8 6 Este 33 Este 0 -- -- 52
2019-07-23 21:00:00 24.7 11 Sur 48 Sudoeste 0.2 -- -- 55
2019-07-23 20:00:00 27.7 27 Sudoeste 46 Sudoeste 0 -- -- 37
2019-07-23 19:00:00 28.2 14 Sudeste 67 Sudoeste 0 -- -- 36
2019-07-23 18:00:00 25.5 17 Sudeste 51 Sur 0.8 -- -- 43
2019-07-23 17:00:00 34.1 21 Oeste 35 Oeste 0 -- -- 24
2019-07-23 16:00:00 33.1 14 Sudoeste 44 Sudoeste 0 -- -- 27
2019-07-23 15:00:00 33.4 24 Sudoeste 42 Sur 0 -- -- 28
2019-07-23 14:00:00 31.6 19 Este 40 Este 0 -- -- 34
2019-07-23 13:00:00 30.7 8 Sudeste 22 Sudeste 0 -- -- 34
2019-07-23 12:00:00 27 9 Sur 21 Sudoeste 0 -- -- 46
2019-07-23 11:00:00 25.1 12 Sudoeste 19 Sudoeste 0 -- -- 51
2019-07-23 10:00:00 24.3 12 Sudoeste 39 Sudoeste 0 -- -- 52
2019-07-23 09:00:00 22.4 4 Oeste 29 Sudoeste 0 -- -- 55
2019-07-23 08:00:00 18.2 3 Sur 12 Sudoeste 0 -- -- 67
2019-07-23 07:00:00 16.8 5 Sudoeste 13 Sudoeste 0 -- -- 68
2019-07-23 06:00:00 18.9 7 Sur 19 Sudeste 0 -- -- 62
2019-07-23 05:00:00 19.3 9 Sudeste 19 Sur 0 -- -- 59
2019-07-23 04:00:00 20.4 5 Sur 19 Sudeste 0 -- -- 58
2019-07-23 03:00:00 21.5 11 Sudeste 16 Sudeste 0 -- -- 55
2019-07-23 02:00:00 22.4 6 Sur 16 Sudoeste 0 -- -- 52
2019-07-23 01:00:00 23.6 8 Sur 19 Sudoeste 0 -- -- 50
2019-07-23 00:00:00 25.4 3 Oeste 18 Sudeste 0 -- -- 43
2019-07-22 23:00:00 28.4 13 Sudeste 26 Este 0 -- -- 34
2019-07-22 22:00:00 29.7 17 Este 31 Este 0 -- -- 30
2019-07-22 21:00:00 31.4 21 Este 40 Este 0 -- -- 28
2019-07-22 20:00:00 33.3 25 Este 40 Este 0 -- -- 27
2019-07-22 19:00:00 34.3 24 Este 41 Este 0 -- -- 29
2019-07-22 18:00:00 34.1 26 Este 40 Este 0 -- -- 34
2019-07-22 17:00:00 33.9 17 Sudeste 35 Este 0 -- -- 35
2019-07-22 16:00:00 33.1 20 Este 33 Sudeste 0 -- -- 36
2019-07-22 15:00:00 31.7 18 Este 35 Este 0 -- -- 40
2019-07-22 14:00:00 29.8 18 Este 36 Este 0 -- -- 47
2019-07-22 13:00:00 27.9 13 Este 27 Este 0 -- -- 55
2019-07-22 12:00:00 25.8 12 Este 24 Este 0 -- -- 63
2019-07-22 11:00:00 23.6 8 Este 19 Este 0 -- -- 71
2019-07-22 10:00:00 21.1 9 Sudeste 18 Este 0 -- -- 81
2019-07-22 09:00:00 18.8 6 Este 12 Este 0 -- -- 92
2019-07-22 08:00:00 18.1 6 Este 11 Este 0 -- -- 94
2019-07-22 07:00:00 18 4 Nordeste 10 Nordeste 0 -- -- 94
2019-07-22 06:00:00 17.8 6 Nordeste 15 Sudeste 0 -- -- 94
2019-07-22 05:00:00 17.7 11 Este 17 Sudeste 0 -- -- 94
2019-07-22 04:00:00 17.8 11 Este 20 Este 0 -- -- 93
2019-07-22 03:00:00 17.7 9 Este 14 Sudeste 0 -- -- 93
2019-07-22 02:00:00 18.3 8 Este 15 Este 0 -- -- 91
2019-07-22 01:00:00 18.4 5 Este 10 Este 0 -- -- 89
2019-07-22 00:00:00 19.1 9 Este 17 Este 0 -- -- 86